Terminal Aerodrome Forecast
Issued by NWS

Home | Current Version | Previous Version | Text Only | Print | Product List | Glossary On
Versions: 1 2 3 4 5 6 7 8 9 10 11 12 13 14 15
458
FTUS42 KFFC 261732
TAFRYY
TAF
KRYY 261732Z 2618/2718 22008KT P6SM FEW040 FEW250
     FM262000 17010G17KT P6SM FEW045 SCT250
     FM270200 17008KT P6SM BKN250
     FM270900 16010KT P6SM VCSH SCT015 OVC025
     FM271200 15010KT P6SM -SHRA BKN015 PROB30 2713/2717 VRB15G30KT
      5SM -TSRA BKN015CB=

USA.gov is the U.S. government's official web portal to all federal, state and local government web resources and services.